createdAt,value
2018-04-27T00:00:12.003Z,79.35
2018-04-27T00:02:39.575Z,79.00
2018-04-27T00:05:07.201Z,78.78
2018-04-27T00:07:34.707Z,79.49
2018-04-27T00:10:02.260Z,79.71
2018-04-27T00:12:29.827Z,79.99
2018-04-27T00:14:57.472Z,80.18
2018-04-27T00:17:25.068Z,80.22
2018-04-27T00:19:52.658Z,79.98
2018-04-27T00:22:20.414Z,79.92
2018-04-27T00:24:48.012Z,80.50
2018-04-27T00:27:15.567Z,81.04
2018-04-27T00:29:43.137Z,81.58
2018-04-27T00:32:10.737Z,82.15
2018-04-27T00:34:38.303Z,82.41
2018-04-27T00:37:05.875Z,82.64
2018-04-27T00:39:33.494Z,82.70
2018-04-27T00:42:01.060Z,82.66
2018-04-27T00:44:28.677Z,82.35
2018-04-27T00:46:56.273Z,81.93
2018-04-27T00:49:24.675Z,81.79
2018-04-27T00:51:52.204Z,81.61
2018-04-27T00:54:19.916Z,81.53
2018-04-27T00:56:47.513Z,80.66
2018-04-27T00:59:15.070Z,79.83
2018-04-27T01:01:42.670Z,80.59
2018-04-27T01:04:10.267Z,80.95
2018-04-27T01:06:37.932Z,80.84
2018-04-27T01:09:05.524Z,80.53
2018-04-27T01:11:33.145Z,80.75
2018-04-27T01:14:00.722Z,80.04
2018-04-27T01:16:28.292Z,80.22
2018-04-27T01:18:55.844Z,80.15
2018-04-27T01:21:23.818Z,80.10
2018-04-27T01:23:51.397Z,80.21
2018-04-27T01:26:18.967Z,80.27
2018-04-27T01:28:46.563Z,80.26
2018-04-27T01:31:14.866Z,79.88
2018-04-27T01:33:42.437Z,80.02
2018-04-27T01:36:10.039Z,80.32
2018-04-27T01:38:37.615Z,80.35
2018-04-27T01:41:05.279Z,80.18
2018-04-27T01:43:33.207Z,80.24
2018-04-27T01:46:00.794Z,79.98
2018-04-27T01:48:28.437Z,79.88
2018-04-27T01:50:55.993Z,79.58
2018-04-27T01:53:23.592Z,79.22
2018-04-27T01:55:51.118Z,79.02
2018-04-27T01:58:18.651Z,79.27
2018-04-27T02:00:46.165Z,79.26
2018-04-27T02:03:13.899Z,79.45
2018-04-27T02:05:41.842Z,79.27
2018-04-27T02:08:09.558Z,78.91
2018-04-27T02:10:37.173Z,79.14
2018-04-27T02:13:04.789Z,78.95
2018-04-27T02:15:33.846Z,78.93
2018-04-27T02:18:01.409Z,78.58
2018-04-27T02:20:28.984Z,78.28
2018-04-27T02:22:56.586Z,78.51
2018-04-27T02:25:24.167Z,78.60
2018-04-27T02:27:51.724Z,78.45
2018-04-27T02:30:19.315Z,78.50
2018-04-27T02:32:46.903Z,78.27
2018-04-27T02:35:14.684Z,78.29
2018-04-27T02:37:42.233Z,78.32
2018-04-27T02:40:09.821Z,78.29
2018-04-27T02:42:37.372Z,78.52
2018-04-27T02:45:04.974Z,78.68
2018-04-27T02:47:32.706Z,78.71
2018-04-27T02:50:00.283Z,78.71
2018-04-27T02:52:27.816Z,78.63
2018-04-27T02:54:55.403Z,78.59
2018-04-27T02:57:22.954Z,78.58
2018-04-27T02:59:50.482Z,78.68
2018-04-27T03:02:18.069Z,78.60
2018-04-27T03:04:45.603Z,78.32
2018-04-27T03:07:13.134Z,77.97
2018-04-27T03:09:40.722Z,77.62
2018-04-27T03:12:08.262Z,77.21
2018-04-27T03:14:35.843Z,77.08
2018-04-27T03:17:03.398Z,76.98
2018-04-27T03:19:30.940Z,76.57
2018-04-27T03:21:58.516Z,76.58
2018-04-27T03:24:26.064Z,76.54
2018-04-27T03:26:53.633Z,76.68
2018-04-27T03:29:21.215Z,76.38
2018-04-27T03:31:48.776Z,76.27
2018-04-27T03:34:16.326Z,76.21
2018-04-27T03:36:43.894Z,75.65
2018-04-27T03:39:11.613Z,76.12
2018-04-27T03:41:39.216Z,76.23
2018-04-27T03:44:06.810Z,77.00
2018-04-27T03:46:34.396Z,77.28
2018-04-27T03:49:01.969Z,77.16
2018-04-27T03:51:29.559Z,76.89
2018-04-27T03:53:57.176Z,76.87
2018-04-27T03:56:24.782Z,76.45
2018-04-27T03:58:52.368Z,76.53
2018-04-27T04:01:32.061Z,76.33
2018-04-27T04:04:11.574Z,76.25
2018-04-27T04:06:39.137Z,76.00
2018-04-27T04:09:06.645Z,75.96
2018-04-27T04:11:34.193Z,76.17
2018-04-27T04:14:01.802Z,76.38
2018-04-27T04:16:29.352Z,76.45
2018-04-27T04:18:56.933Z,76.35
2018-04-27T04:21:24.822Z,76.39
2018-04-27T04:23:52.573Z,76.13
2018-04-27T04:26:20.175Z,75.95
2018-04-27T04:28:47.732Z,75.63
2018-04-27T04:31:15.324Z,75.54
2018-04-27T04:33:42.939Z,75.22
2018-04-27T04:36:10.528Z,75.55
2018-04-27T04:38:38.123Z,75.30
2018-04-27T04:41:05.687Z,75.47
2018-04-27T04:43:33.357Z,75.78
2018-04-27T04:46:00.940Z,75.45
2018-04-27T04:48:28.580Z,75.02
2018-04-27T04:50:56.193Z,75.57
2018-04-27T04:53:23.694Z,75.87
2018-04-27T04:55:51.209Z,76.13
2018-04-27T04:58:18.851Z,76.69
2018-04-27T05:00:46.476Z,76.31
2018-04-27T05:03:14.300Z,76.65
2018-04-27T05:05:42.073Z,76.89
2018-04-27T05:08:09.728Z,76.96
2018-04-27T05:10:37.261Z,77.06
2018-04-27T05:13:05.017Z,77.31
2018-04-27T05:15:32.588Z,76.96
2018-04-27T05:18:11.005Z,77.48
2018-04-27T05:20:38.640Z,77.66
2018-04-27T05:23:06.375Z,77.45
2018-04-27T05:25:34.061Z,77.32
2018-04-27T05:28:01.705Z,77.46
2018-04-27T05:30:29.305Z,77.93
2018-04-27T05:33:04.733Z,78.28
2018-04-27T05:35:32.336Z,78.20
2018-04-27T05:37:59.939Z,78.13
2018-04-27T05:40:27.545Z,78.02
2018-04-27T05:42:55.167Z,77.97
2018-04-27T05:45:23.600Z,77.28
2018-04-27T05:47:51.221Z,77.50
2018-04-27T05:50:18.829Z,77.39
2018-04-27T05:52:46.484Z,76.48
2018-04-27T05:55:14.124Z,76.86
2018-04-27T05:57:41.796Z,76.82
2018-04-27T06:00:09.309Z,76.70
2018-04-27T06:02:36.829Z,76.16
2018-04-27T06:05:04.348Z,74.94
2018-04-27T06:07:31.944Z,74.68
2018-04-27T06:09:59.611Z,74.72
2018-04-27T06:12:27.220Z,74.81
2018-04-27T06:14:55.180Z,74.42
2018-04-27T06:17:22.799Z,73.18
2018-04-27T06:19:50.434Z,73.10
2018-04-27T06:22:17.993Z,73.29
2018-04-27T06:24:45.745Z,73.43
2018-04-27T06:27:13.316Z,73.53
2018-04-27T06:29:40.976Z,73.82
2018-04-27T06:32:08.560Z,73.75
2018-04-27T06:34:36.070Z,72.68
2018-04-27T06:37:03.605Z,72.49
2018-04-27T06:39:31.660Z,71.28
2018-04-27T06:41:59.294Z,70.89
2018-04-27T06:44:26.932Z,68.67
2018-04-27T06:46:54.442Z,67.83
2018-04-27T06:49:21.999Z,67.96
2018-04-27T06:51:49.509Z,67.82
2018-04-27T06:54:17.042Z,66.68
2018-04-27T06:56:44.569Z,66.53
2018-04-27T06:59:12.121Z,65.21
2018-04-27T07:01:39.614Z,65.25
2018-04-27T07:04:07.134Z,64.88
2018-04-27T07:06:34.645Z,63.64
2018-04-27T07:09:02.201Z,63.81
2018-04-27T07:11:30.105Z,63.05
2018-04-27T07:13:57.680Z,63.10
2018-04-27T07:16:25.283Z,61.23
2018-04-27T07:18:52.935Z,61.28
2018-04-27T07:21:21.735Z,60.36
2018-04-27T07:23:49.354Z,61.12
2018-04-27T07:26:17.016Z,60.52
2018-04-27T07:28:45.437Z,59.07
2018-04-27T07:31:12.940Z,58.19
2018-04-27T07:33:40.543Z,57.26
2018-04-27T07:36:08.157Z,57.00
2018-04-27T07:38:35.733Z,57.06
2018-04-27T07:41:03.326Z,56.08
2018-04-27T07:43:30.924Z,56.92
2018-04-27T07:45:58.525Z,57.35
2018-04-27T07:48:26.178Z,57.55
2018-04-27T07:50:53.709Z,55.50
2018-04-27T07:53:21.577Z,54.64
2018-04-27T07:55:49.103Z,54.49
2018-04-27T07:58:16.637Z,53.67
2018-04-27T08:00:44.293Z,51.97
2018-04-27T08:03:12.597Z,52.14
2018-04-27T08:05:40.224Z,53.34
2018-04-27T08:08:07.799Z,52.53
2018-04-27T08:10:35.541Z,52.88
2018-04-27T08:13:03.068Z,51.35
2018-04-27T08:15:30.736Z,50.87
2018-04-27T08:17:58.368Z,51.17
2018-04-27T08:20:28.912Z,49.46
2018-04-27T08:22:57.452Z,50.83
2018-04-27T08:25:30.413Z,50.80
2018-04-27T08:27:58.057Z,50.50
2018-04-27T08:30:25.717Z,49.88
2018-04-27T08:32:53.363Z,49.42
2018-04-27T08:35:21.900Z,47.99
2018-04-27T08:37:49.457Z,48.02
2018-04-27T08:40:17.172Z,46.63
2018-04-27T08:42:44.701Z,45.73
2018-04-27T08:45:12.678Z,44.54
2018-04-27T08:47:40.308Z,46.30
2018-04-27T08:50:07.922Z,47.05
2018-04-27T08:52:35.747Z,46.82
2018-04-27T08:55:07.787Z,46.12
2018-04-27T08:57:35.395Z,44.65
2018-04-27T09:00:03.002Z,45.41
2018-04-27T09:02:31.160Z,44.70
2018-04-27T09:04:58.746Z,44.87
2018-04-27T09:07:26.806Z,43.52
2018-04-27T09:09:55.065Z,42.47
2018-04-27T09:12:22.663Z,42.30
2018-04-27T09:14:50.329Z,42.99
2018-04-27T09:17:18.100Z,42.81
2018-04-27T09:19:45.921Z,43.56
2018-04-27T09:22:13.549Z,43.30
2018-04-27T09:24:41.116Z,41.89
2018-04-27T09:27:08.713Z,41.95
2018-04-27T09:29:36.344Z,42.08
2018-04-27T09:32:03.950Z,42.76
2018-04-27T09:34:31.644Z,42.40
2018-04-27T09:36:59.211Z,40.66
2018-04-27T09:39:26.768Z,41.73
2018-04-27T09:41:55.117Z,41.04
2018-04-27T09:44:22.707Z,38.65
2018-04-27T09:46:50.289Z,40.00
2018-04-27T09:49:17.902Z,41.19
2018-04-27T09:51:45.480Z,41.02
2018-04-27T09:54:13.059Z,41.20
2018-04-27T09:59:14.465Z,40.14
2018-04-27T10:01:42.083Z,39.85
2018-04-27T10:04:09.724Z,39.70
2018-04-27T10:09:27.884Z,40.49
2018-04-27T10:11:55.456Z,40.68
2018-04-27T10:14:23.002Z,40.83
2018-04-27T10:16:50.548Z,39.46
2018-04-27T10:19:18.305Z,38.66
2018-04-27T10:21:45.934Z,39.29
2018-04-27T10:24:13.520Z,38.72
2018-04-27T10:26:41.104Z,36.89
2018-04-27T10:29:08.770Z,38.58
2018-04-27T10:31:37.579Z,40.45
2018-04-27T10:34:05.293Z,39.78
2018-04-27T10:36:32.949Z,39.95
2018-04-27T10:39:00.546Z,40.50
2018-04-27T10:41:28.175Z,41.25
2018-04-27T10:43:55.857Z,39.81
2018-04-27T10:46:23.516Z,40.00
2018-04-27T10:48:51.139Z,40.48
2018-04-27T10:51:19.009Z,40.48
2018-04-27T10:53:46.648Z,40.60
2018-04-27T10:56:14.245Z,40.97
2018-04-27T10:58:41.830Z,39.06
2018-04-27T11:01:09.446Z,39.30
2018-04-27T11:03:37.487Z,39.10
2018-04-27T11:06:05.410Z,38.65
2018-04-27T11:08:33.038Z,39.17
2018-04-27T11:11:00.708Z,38.86
2018-04-27T11:13:28.375Z,39.03
2018-04-27T11:15:56.291Z,38.75
2018-04-27T11:18:23.879Z,38.05
2018-04-27T11:20:51.521Z,38.38
2018-04-27T11:23:19.062Z,37.86
2018-04-27T11:25:46.718Z,36.97
2018-04-27T11:28:14.296Z,37.39
2018-04-27T11:30:41.869Z,35.74
2018-04-27T11:33:09.717Z,36.47
2018-04-27T11:35:37.327Z,36.71
2018-04-27T11:38:04.978Z,36.30
2018-04-27T11:40:32.570Z,36.34
2018-04-27T11:43:00.076Z,35.18
2018-04-27T11:45:28.056Z,34.92
2018-04-27T11:47:55.964Z,35.33
2018-04-27T11:50:23.477Z,35.60
2018-04-27T11:52:51.030Z,36.02
2018-04-27T11:55:18.903Z,34.93
2018-04-27T12:00:22.174Z,34.17
2018-04-27T12:02:49.701Z,33.65
2018-04-27T12:05:17.347Z,34.62
2018-04-27T12:07:44.953Z,36.06
2018-04-27T12:10:12.522Z,36.23
2018-04-27T12:12:40.095Z,36.72
2018-04-27T12:15:07.721Z,35.33
2018-04-27T12:17:35.416Z,35.11
2018-04-27T12:20:02.856Z,34.22
2018-04-27T12:22:30.580Z,34.83
2018-04-27T12:24:58.122Z,34.58
2018-04-27T12:27:25.721Z,35.30
2018-04-27T12:29:53.281Z,35.44
2018-04-27T12:32:20.819Z,35.36
2018-04-27T12:34:48.354Z,33.90
2018-04-27T12:37:15.992Z,33.52
2018-04-27T12:39:43.626Z,33.62
2018-04-27T12:42:11.313Z,33.91
2018-04-27T12:44:41.830Z,33.85
2018-04-27T12:47:09.447Z,33.83
2018-04-27T12:49:37.032Z,33.98
2018-04-27T12:52:04.723Z,33.47
2018-04-27T12:54:32.445Z,33.56
2018-04-27T12:57:00.119Z,33.09
2018-04-27T12:59:27.722Z,32.55
2018-04-27T13:01:55.299Z,32.47
2018-04-27T13:04:22.887Z,32.94
2018-04-27T13:06:50.463Z,32.77
2018-04-27T13:09:18.014Z,32.62
2018-04-27T13:11:45.523Z,32.63
2018-04-27T13:14:13.116Z,33.27
2018-04-27T13:16:40.714Z,34.50
2018-04-27T13:19:08.331Z,32.60
2018-04-27T13:21:35.928Z,32.79
2018-04-27T13:24:03.547Z,34.04
2018-04-27T13:26:31.132Z,33.58
2018-04-27T13:28:58.698Z,33.45
2018-04-27T13:31:26.279Z,32.93
2018-04-27T13:33:53.852Z,33.04
2018-04-27T13:36:21.433Z,31.69
2018-04-27T13:38:49.048Z,32.51
2018-04-27T13:41:16.682Z,32.27
2018-04-27T13:43:44.259Z,31.02
2018-04-27T13:46:11.855Z,31.94
2018-04-27T13:48:39.449Z,33.41
2018-04-27T13:51:07.047Z,33.08
2018-04-27T13:53:34.855Z,31.58
2018-04-27T13:56:02.464Z,32.43
2018-04-27T13:58:30.177Z,32.79
2018-04-27T14:00:57.808Z,32.19
2018-04-27T14:03:25.577Z,32.36
2018-04-27T14:05:53.196Z,32.11
2018-04-27T14:08:20.859Z,31.40
2018-04-27T14:10:48.479Z,32.12
2018-04-27T14:13:16.097Z,31.40
2018-04-27T14:15:43.607Z,30.94
2018-04-27T14:18:11.280Z,32.06
2018-04-27T14:20:38.865Z,31.43
2018-04-27T14:23:12.271Z,30.60
2018-04-27T14:25:42.258Z,31.70
2018-04-27T14:28:10.521Z,31.66
2018-04-27T14:30:38.569Z,31.08
2018-04-27T14:33:06.324Z,31.25
2018-04-27T14:35:33.897Z,31.18
2018-04-27T14:38:01.462Z,31.16
2018-04-27T14:40:29.067Z,31.61
2018-04-27T14:42:56.655Z,30.99
2018-04-27T14:45:24.300Z,31.28
2018-04-27T14:47:51.943Z,31.18
2018-04-27T14:50:19.543Z,31.19
2018-04-27T14:52:47.207Z,30.87
2018-04-27T14:55:14.813Z,30.75
2018-04-27T14:57:42.440Z,31.00
2018-04-27T15:00:10.126Z,30.47
2018-04-27T15:02:37.802Z,31.09
2018-04-27T15:05:05.409Z,31.20
2018-04-27T15:07:34.573Z,30.96
2018-04-27T15:10:02.202Z,30.91
2018-04-27T15:12:29.883Z,30.59
2018-04-27T15:14:57.524Z,31.48
2018-04-27T15:17:25.189Z,31.79
2018-04-27T15:19:52.917Z,32.21
2018-04-27T15:22:20.704Z,31.76
2018-04-27T15:24:48.298Z,31.71
2018-04-27T15:27:15.877Z,31.24
2018-04-27T15:29:43.521Z,31.35
2018-04-27T15:32:11.264Z,30.83
2018-04-27T15:34:38.898Z,31.14
2018-04-27T15:37:06.713Z,31.51
2018-04-27T15:39:34.335Z,31.52
2018-04-27T15:42:01.980Z,31.56
2018-04-27T15:44:29.640Z,31.72
2018-04-27T15:46:57.254Z,31.71
2018-04-27T15:49:24.958Z,30.91
2018-04-27T15:51:52.551Z,31.74
2018-04-27T15:54:20.127Z,31.95
2018-04-27T15:56:47.704Z,31.53
2018-04-27T15:59:15.399Z,31.47
2018-04-27T16:01:43.008Z,31.70
2018-04-27T16:04:10.581Z,31.74
2018-04-27T16:06:38.219Z,32.14
2018-04-27T16:09:05.803Z,30.80
2018-04-27T16:11:33.823Z,32.14
2018-04-27T16:14:01.589Z,33.25
2018-04-27T16:16:31.017Z,33.25
2018-04-27T16:19:07.621Z,32.87
2018-04-27T16:21:35.172Z,33.03
2018-04-27T16:24:02.715Z,32.87
2018-04-27T16:26:31.045Z,32.23
2018-04-27T16:28:59.409Z,32.36
2018-04-27T16:31:27.738Z,32.91
2018-04-27T16:33:55.327Z,33.44
2018-04-27T16:36:22.835Z,33.94
2018-04-27T16:38:50.401Z,33.70
2018-04-27T16:41:18.188Z,33.25
2018-04-27T16:43:45.749Z,34.17
2018-04-27T16:46:13.253Z,34.32
2018-04-27T16:48:40.745Z,34.23
2018-04-27T16:51:08.278Z,34.11
2018-04-27T16:53:36.001Z,34.68
2018-04-27T16:56:03.540Z,35.41
2018-04-27T16:58:31.179Z,35.76
2018-04-27T17:00:58.732Z,36.34
2018-04-27T17:03:26.296Z,36.73
2018-04-27T17:05:53.818Z,36.54
2018-04-27T17:08:21.364Z,36.84
2018-04-27T17:10:48.886Z,37.47
2018-04-27T17:15:50.135Z,39.27
2018-04-27T17:18:17.648Z,39.10
2018-04-27T17:20:45.184Z,41.14
2018-04-27T17:23:13.017Z,42.65
2018-04-27T17:25:40.550Z,42.74
2018-04-27T17:28:08.117Z,43.63
2018-04-27T17:30:35.621Z,44.02
2018-04-27T17:33:03.167Z,43.90
2018-04-27T17:35:30.918Z,44.77
2018-04-27T17:37:58.430Z,45.17
2018-04-27T17:40:26.009Z,46.41
2018-04-27T17:42:53.485Z,47.50
2018-04-27T17:45:21.539Z,48.33
2018-04-27T17:47:49.341Z,49.37
2018-04-27T17:50:16.903Z,49.31
2018-04-27T17:52:44.468Z,50.35
2018-04-27T17:55:12.112Z,50.67
2018-04-27T17:57:39.617Z,50.78
2018-04-27T18:00:07.151Z,51.97
2018-04-27T18:02:34.825Z,52.61
2018-04-27T18:05:02.398Z,52.16
2018-04-27T18:07:29.976Z,51.55
2018-04-27T18:09:57.488Z,51.74
2018-04-27T18:12:25.053Z,51.72
2018-04-27T18:14:52.586Z,51.03
2018-04-27T18:17:20.434Z,52.40
2018-04-27T18:19:48.053Z,53.82
2018-04-27T18:22:15.650Z,54.17
2018-04-27T18:24:43.282Z,53.65
2018-04-27T18:27:10.840Z,54.82
2018-04-27T18:29:38.404Z,54.76
2018-04-27T18:32:06.019Z,55.16
2018-04-27T18:34:33.587Z,55.88
2018-04-27T18:37:09.962Z,55.58
2018-04-27T18:39:37.569Z,55.95
2018-04-27T18:42:05.106Z,56.52
2018-04-27T18:44:32.678Z,57.16
2018-04-27T18:47:00.134Z,57.04
2018-04-27T18:49:27.672Z,56.99
2018-04-27T18:51:55.214Z,56.89
2018-04-27T18:54:22.776Z,56.21
2018-04-27T18:56:50.635Z,55.89
2018-04-27T18:59:18.203Z,56.24
2018-04-27T19:01:45.744Z,56.15
2018-04-27T19:04:16.113Z,56.48
2018-04-27T19:06:43.649Z,55.80
2018-04-27T19:09:11.651Z,56.36
2018-04-27T19:11:40.251Z,57.12
2018-04-27T19:14:07.830Z,57.98
2018-04-27T19:16:35.465Z,58.46
2018-04-27T19:19:16.748Z,59.56
2018-04-27T19:21:44.919Z,60.32
2018-04-27T19:24:12.502Z,60.41
2018-04-27T19:26:40.052Z,60.84
2018-04-27T19:29:09.593Z,60.96
2018-04-27T19:34:16.171Z,61.61
2018-04-27T19:36:43.717Z,62.30
2018-04-27T19:39:11.373Z,62.15
2018-04-27T19:41:38.942Z,62.33
2018-04-27T19:44:06.526Z,62.20
2018-04-27T19:46:34.097Z,61.49
2018-04-27T19:49:01.701Z,61.78
2018-04-27T19:51:29.216Z,62.48
2018-04-27T19:53:56.726Z,62.97
2018-04-27T19:56:24.231Z,62.66
2018-04-27T19:58:51.742Z,62.21
2018-04-27T20:01:19.264Z,61.84
2018-04-27T20:03:48.192Z,61.21
2018-04-27T20:06:15.846Z,60.71
2018-04-27T20:08:43.501Z,60.42
2018-04-27T20:11:13.007Z,60.47
2018-04-27T20:13:40.607Z,60.70
2018-04-27T20:16:08.236Z,60.77
2018-04-27T20:18:35.874Z,60.89
2018-04-27T20:21:04.208Z,60.71
2018-04-27T20:23:38.578Z,60.62
2018-04-27T20:26:06.107Z,60.64
2018-04-27T20:28:35.276Z,60.46
2018-04-27T20:31:02.830Z,61.15
2018-04-27T20:33:30.490Z,61.39
2018-04-27T20:35:58.942Z,61.19
2018-04-27T20:38:27.296Z,61.87
2018-04-27T20:40:54.857Z,62.71
2018-04-27T20:43:22.443Z,62.61
2018-04-27T20:45:50.104Z,62.57
2018-04-27T20:48:20.448Z,62.52
2018-04-27T20:50:57.967Z,63.01
2018-04-27T20:53:26.101Z,62.49
2018-04-27T20:56:02.648Z,62.38
2018-04-27T20:58:30.252Z,62.21
2018-04-27T21:00:58.679Z,62.35
2018-04-27T21:03:26.243Z,62.39
2018-04-27T21:05:53.841Z,62.34
2018-04-27T21:08:21.406Z,62.83
2018-04-27T21:10:48.942Z,62.65
2018-04-27T21:13:16.541Z,62.79
2018-04-27T21:15:44.212Z,63.03
2018-04-27T21:18:15.473Z,62.92
2018-04-27T21:20:42.973Z,63.03
2018-04-27T21:23:10.501Z,62.77
2018-04-27T21:25:38.016Z,62.93
2018-04-27T21:31:01.399Z,63.87
2018-04-27T21:33:30.673Z,63.75
2018-04-27T21:36:00.998Z,63.59
2018-04-27T21:41:28.205Z,65.24
2018-04-27T21:46:54.582Z,65.92
2018-04-27T21:49:24.981Z,65.75
2018-04-27T21:51:54.789Z,65.71
2018-04-27T21:54:23.211Z,65.73
2018-04-27T21:57:00.490Z,65.67
2018-04-27T21:59:34.568Z,65.71
2018-04-27T22:02:02.062Z,65.43
2018-04-27T22:04:29.554Z,65.21
2018-04-27T22:06:57.061Z,65.29
2018-04-27T22:09:28.362Z,65.64
2018-04-27T22:11:55.909Z,65.86
2018-04-27T22:14:29.357Z,65.70
2018-04-27T22:16:58.789Z,65.83
2018-04-27T22:19:27.425Z,65.44
2018-04-27T22:21:55.085Z,65.71
2018-04-27T22:24:23.431Z,65.78
2018-04-27T22:27:09.592Z,66.07
2018-04-27T22:29:41.651Z,65.96
2018-04-27T22:32:11.964Z,66.10
2018-04-27T22:34:47.386Z,66.26
2018-04-27T22:37:14.907Z,66.38
2018-04-27T22:39:46.103Z,66.62
2018-04-27T22:42:22.247Z,66.56
2018-04-27T22:44:49.744Z,66.81
2018-04-27T22:47:21.002Z,66.92
2018-04-27T22:49:48.571Z,67.12
2018-04-27T22:52:16.130Z,66.97
2018-04-27T22:54:49.302Z,66.73
2018-04-27T22:57:23.437Z,67.53
2018-04-27T22:59:57.419Z,68.25
2018-04-27T23:02:24.954Z,68.89
2018-04-27T23:04:59.820Z,69.12
2018-04-27T23:07:38.006Z,68.91
2018-04-27T23:10:05.590Z,69.07
2018-04-27T23:12:39.728Z,69.25
2018-04-27T23:15:07.248Z,69.23
2018-04-27T23:17:34.739Z,69.91
2018-04-27T23:20:03.718Z,70.05
2018-04-27T23:22:44.432Z,70.25
2018-04-27T23:25:14.900Z,71.02
2018-04-27T23:27:42.369Z,70.98
2018-04-27T23:30:09.901Z,71.02
2018-04-27T23:32:37.385Z,70.81
2018-04-27T23:35:04.872Z,70.55
2018-04-27T23:37:32.413Z,70.10
2018-04-27T23:39:59.912Z,70.04
2018-04-27T23:42:28.344Z,70.14
2018-04-27T23:44:55.889Z,70.47
2018-04-27T23:47:23.358Z,70.66
2018-04-27T23:49:50.894Z,70.53
2018-04-27T23:52:18.379Z,70.64
2018-04-27T23:54:45.883Z,70.93
2018-04-27T23:57:14.202Z,71.19
2018-04-27T23:59:56.560Z,71.43
